sensor_id;sensor_type;location;lat;lon;timestamp;P1;durP1;ratioP1;P2;durP2;ratioP2
75441;SDS011;64019;48.312;14.226;2023-08-31T00:02:02;9.17;;;4.80;;
75441;SDS011;64019;48.312;14.226;2023-08-31T00:04:28;21.33;;;10.17;;
75441;SDS011;64019;48.312;14.226;2023-08-31T00:06:54;12.43;;;7.57;;
75441;SDS011;64019;48.312;14.226;2023-08-31T00:09:22;8.97;;;4.63;;
75441;SDS011;64019;48.312;14.226;2023-08-31T00:11:49;12.60;;;5.53;;
75441;SDS011;64019;48.312;14.226;2023-08-31T00:14:15;12.13;;;5.70;;
75441;SDS011;64019;48.312;14.226;2023-08-31T00:16:41;9.83;;;4.90;;
75441;SDS011;64019;48.312;14.226;2023-08-31T00:19:06;7.47;;;5.27;;
75441;SDS011;64019;48.312;14.226;2023-08-31T00:21:32;16.10;;;7.03;;
75441;SDS011;64019;48.312;14.226;2023-08-31T00:23:58;9.70;;;6.33;;
75441;SDS011;64019;48.312;14.226;2023-08-31T00:26:24;7.33;;;5.00;;
75441;SDS011;64019;48.312;14.226;2023-08-31T00:28:50;7.53;;;5.07;;
75441;SDS011;64019;48.312;14.226;2023-08-31T00:31:16;7.53;;;5.33;;
75441;SDS011;64019;48.312;14.226;2023-08-31T00:33:41;11.57;;;6.10;;
75441;SDS011;64019;48.312;14.226;2023-08-31T00:36:08;10.57;;;6.00;;
75441;SDS011;64019;48.312;14.226;2023-08-31T00:38:33;8.80;;;5.70;;
75441;SDS011;64019;48.312;14.226;2023-08-31T00:40:59;10.67;;;5.83;;
75441;SDS011;64019;48.312;14.226;2023-08-31T00:43:26;7.83;;;5.00;;
75441;SDS011;64019;48.312;14.226;2023-08-31T00:45:53;8.17;;;5.37;;
75441;SDS011;64019;48.312;14.226;2023-08-31T00:48:24;14.97;;;5.20;;
75441;SDS011;64019;48.312;14.226;2023-08-31T00:50:50;7.00;;;5.17;;
75441;SDS011;64019;48.312;14.226;2023-08-31T00:53:16;8.77;;;5.50;;
75441;SDS011;64019;48.312;14.226;2023-08-31T00:55:44;10.20;;;6.20;;
75441;SDS011;64019;48.312;14.226;2023-08-31T00:58:10;10.20;;;5.97;;
75441;SDS011;64019;48.312;14.226;2023-08-31T01:00:47;12.40;;;5.93;;
75441;SDS011;64019;48.312;14.226;2023-08-31T01:03:36;12.40;;;5.80;;
75441;SDS011;64019;48.312;14.226;2023-08-31T01:09:05;8.93;;;5.27;;
75441;SDS011;64019;48.312;14.226;2023-08-31T01:11:58;7.50;;;5.13;;
75441;SDS011;64019;48.312;14.226;2023-08-31T01:14:32;7.87;;;5.80;;
75441;SDS011;64019;48.312;14.226;2023-08-31T01:17:01;10.70;;;5.87;;
75441;SDS011;64019;48.312;14.226;2023-08-31T01:19:45;11.43;;;5.03;;
75441;SDS011;64019;48.312;14.226;2023-08-31T01:25:01;9.00;;;5.67;;
75441;SDS011;64019;48.312;14.226;2023-08-31T01:27:29;7.23;;;5.37;;
75441;SDS011;64019;48.312;14.226;2023-08-31T01:29:56;11.73;;;5.37;;
75441;SDS011;64019;48.312;14.226;2023-08-31T01:32:22;15.47;;;5.43;;
75441;SDS011;64019;48.312;14.226;2023-08-31T01:34:49;10.07;;;5.60;;
75441;SDS011;64019;48.312;14.226;2023-08-31T01:37:17;8.10;;;5.07;;
75441;SDS011;64019;48.312;14.226;2023-08-31T01:40:09;8.07;;;5.60;;
75441;SDS011;64019;48.312;14.226;2023-08-31T01:42:40;6.83;;;4.67;;
75441;SDS011;64019;48.312;14.226;2023-08-31T01:45:07;6.17;;;4.97;;
75441;SDS011;64019;48.312;14.226;2023-08-31T01:47:35;9.40;;;5.07;;
75441;SDS011;64019;48.312;14.226;2023-08-31T01:50:01;8.47;;;5.10;;
75441;SDS011;64019;48.312;14.226;2023-08-31T01:52:27;10.37;;;5.20;;
75441;SDS011;64019;48.312;14.226;2023-08-31T01:54:52;8.77;;;5.30;;
75441;SDS011;64019;48.312;14.226;2023-08-31T01:57:18;9.33;;;6.20;;
75441;SDS011;64019;48.312;14.226;2023-08-31T01:59:44;17.37;;;5.60;;
75441;SDS011;64019;48.312;14.226;2023-08-31T02:02:09;8.03;;;5.37;;
75441;SDS011;64019;48.312;14.226;2023-08-31T02:04:35;7.27;;;5.60;;
75441;SDS011;64019;48.312;14.226;2023-08-31T02:07:00;9.77;;;5.60;;
75441;SDS011;64019;48.312;14.226;2023-08-31T02:09:26;11.63;;;5.60;;
75441;SDS011;64019;48.312;14.226;2023-08-31T02:11:52;14.33;;;6.40;;
75441;SDS011;64019;48.312;14.226;2023-08-31T02:14:17;9.00;;;5.77;;
75441;SDS011;64019;48.312;14.226;2023-08-31T02:16:43;10.60;;;6.10;;
75441;SDS011;64019;48.312;14.226;2023-08-31T02:19:09;11.93;;;6.17;;
75441;SDS011;64019;48.312;14.226;2023-08-31T02:21:35;9.90;;;6.50;;
75441;SDS011;64019;48.312;14.226;2023-08-31T02:24:00;9.83;;;6.57;;
75441;SDS011;64019;48.312;14.226;2023-08-31T02:26:26;8.60;;;5.27;;
75441;SDS011;64019;48.312;14.226;2023-08-31T02:28:52;7.20;;;5.80;;
75441;SDS011;64019;48.312;14.226;2023-08-31T02:31:17;8.83;;;5.93;;
75441;SDS011;64019;48.312;14.226;2023-08-31T02:33:44;10.63;;;5.73;;
75441;SDS011;64019;48.312;14.226;2023-08-31T02:36:11;9.57;;;5.93;;
75441;SDS011;64019;48.312;14.226;2023-08-31T02:38:37;9.40;;;5.73;;
75441;SDS011;64019;48.312;14.226;2023-08-31T02:41:02;10.13;;;6.03;;
75441;SDS011;64019;48.312;14.226;2023-08-31T02:43:28;7.07;;;5.57;;
75441;SDS011;64019;48.312;14.226;2023-08-31T02:45:58;7.00;;;5.70;;
75441;SDS011;64019;48.312;14.226;2023-08-31T02:48:27;6.93;;;5.37;;
75441;SDS011;64019;48.312;14.226;2023-08-31T02:50:54;6.37;;;4.93;;
75441;SDS011;64019;48.312;14.226;2023-08-31T02:53:26;8.67;;;5.40;;
75441;SDS011;64019;48.312;14.226;2023-08-31T02:55:52;12.50;;;6.10;;
75441;SDS011;64019;48.312;14.226;2023-08-31T02:58:18;8.33;;;5.57;;
75441;SDS011;64019;48.312;14.226;2023-08-31T03:00:44;8.37;;;5.70;;
75441;SDS011;64019;48.312;14.226;2023-08-31T03:03:16;8.77;;;5.93;;
75441;SDS011;64019;48.312;14.226;2023-08-31T03:05:43;9.87;;;6.17;;
75441;SDS011;64019;48.312;14.226;2023-08-31T03:08:10;7.53;;;5.53;;
75441;SDS011;64019;48.312;14.226;2023-08-31T03:10:36;9.17;;;5.90;;
75441;SDS011;64019;48.312;14.226;2023-08-31T03:13:03;7.77;;;6.10;;
75441;SDS011;64019;48.312;14.226;2023-08-31T03:15:29;10.10;;;5.80;;
75441;SDS011;64019;48.312;14.226;2023-08-31T03:17:54;10.23;;;6.77;;
75441;SDS011;64019;48.312;14.226;2023-08-31T03:20:20;7.70;;;5.97;;
75441;SDS011;64019;48.312;14.226;2023-08-31T03:22:46;9.17;;;6.67;;
75441;SDS011;64019;48.312;14.226;2023-08-31T03:25:11;7.17;;;5.57;;
75441;SDS011;64019;48.312;14.226;2023-08-31T03:27:37;8.50;;;6.20;;
75441;SDS011;64019;48.312;14.226;2023-08-31T03:30:02;8.30;;;6.40;;
75441;SDS011;64019;48.312;14.226;2023-08-31T03:32:29;7.73;;;6.03;;
75441;SDS011;64019;48.312;14.226;2023-08-31T03:34:54;9.03;;;6.60;;
75441;SDS011;64019;48.312;14.226;2023-08-31T03:37:20;7.57;;;5.80;;
75441;SDS011;64019;48.312;14.226;2023-08-31T03:39:49;9.13;;;5.93;;
75441;SDS011;64019;48.312;14.226;2023-08-31T03:42:15;7.67;;;5.83;;
75441;SDS011;64019;48.312;14.226;2023-08-31T03:44:41;10.13;;;5.30;;
75441;SDS011;64019;48.312;14.226;2023-08-31T03:47:07;6.83;;;5.30;;
75441;SDS011;64019;48.312;14.226;2023-08-31T03:49:32;10.73;;;5.90;;
75441;SDS011;64019;48.312;14.226;2023-08-31T03:51:59;8.80;;;6.03;;
75441;SDS011;64019;48.312;14.226;2023-08-31T03:54:25;9.63;;;6.03;;
75441;SDS011;64019;48.312;14.226;2023-08-31T03:56:51;11.57;;;5.63;;
75441;SDS011;64019;48.312;14.226;2023-08-31T03:59:17;8.53;;;5.43;;
75441;SDS011;64019;48.312;14.226;2023-08-31T04:01:43;7.77;;;5.03;;
75441;SDS011;64019;48.312;14.226;2023-08-31T04:04:09;10.23;;;5.73;;
75441;SDS011;64019;48.312;14.226;2023-08-31T04:06:34;9.13;;;6.23;;
75441;SDS011;64019;48.312;14.226;2023-08-31T04:09:00;9.63;;;6.30;;
75441;SDS011;64019;48.312;14.226;2023-08-31T04:11:26;11.83;;;6.97;;
75441;SDS011;64019;48.312;14.226;2023-08-31T04:13:52;9.20;;;6.57;;
75441;SDS011;64019;48.312;14.226;2023-08-31T04:16:18;12.83;;;7.43;;
75441;SDS011;64019;48.312;14.226;2023-08-31T04:18:43;12.73;;;6.83;;
75441;SDS011;64019;48.312;14.226;2023-08-31T04:21:17;10.87;;;6.07;;
75441;SDS011;64019;48.312;14.226;2023-08-31T04:24:11;9.13;;;6.23;;
75441;SDS011;64019;48.312;14.226;2023-08-31T04:27:23;11.43;;;6.87;;
75441;SDS011;64019;48.312;14.226;2023-08-31T04:29:48;11.90;;;5.97;;
75441;SDS011;64019;48.312;14.226;2023-08-31T04:32:14;11.17;;;6.73;;
75441;SDS011;64019;48.312;14.226;2023-08-31T04:34:40;12.67;;;7.17;;
75441;SDS011;64019;48.312;14.226;2023-08-31T04:37:05;11.13;;;7.40;;
75441;SDS011;64019;48.312;14.226;2023-08-31T04:39:31;13.90;;;8.43;;
75441;SDS011;64019;48.312;14.226;2023-08-31T04:41:56;13.00;;;7.57;;
75441;SDS011;64019;48.312;14.226;2023-08-31T04:44:22;11.90;;;8.07;;
75441;SDS011;64019;48.312;14.226;2023-08-31T04:46:48;11.00;;;8.17;;
75441;SDS011;64019;48.312;14.226;2023-08-31T04:49:13;11.40;;;7.93;;
75441;SDS011;64019;48.312;14.226;2023-08-31T04:51:39;13.30;;;7.97;;
75441;SDS011;64019;48.312;14.226;2023-08-31T04:54:06;8.90;;;6.83;;
75441;SDS011;64019;48.312;14.226;2023-08-31T04:56:32;10.77;;;7.20;;
75441;SDS011;64019;48.312;14.226;2023-08-31T04:58:59;9.27;;;7.07;;
75441;SDS011;64019;48.312;14.226;2023-08-31T05:01:24;13.47;;;7.53;;
75441;SDS011;64019;48.312;14.226;2023-08-31T05:03:50;11.07;;;7.03;;
75441;SDS011;64019;48.312;14.226;2023-08-31T05:06:16;13.80;;;7.83;;
75441;SDS011;64019;48.312;14.226;2023-08-31T05:08:42;14.53;;;7.67;;
75441;SDS011;64019;48.312;14.226;2023-08-31T05:11:07;12.53;;;7.83;;
75441;SDS011;64019;48.312;14.226;2023-08-31T05:13:34;10.10;;;7.40;;
75441;SDS011;64019;48.312;14.226;2023-08-31T05:16:00;10.73;;;8.10;;
75441;SDS011;64019;48.312;14.226;2023-08-31T05:18:25;12.33;;;8.10;;
75441;SDS011;64019;48.312;14.226;2023-08-31T05:20:51;11.83;;;7.90;;
75441;SDS011;64019;48.312;14.226;2023-08-31T05:23:17;11.73;;;8.30;;
75441;SDS011;64019;48.312;14.226;2023-08-31T05:25:45;12.90;;;8.17;;
75441;SDS011;64019;48.312;14.226;2023-08-31T05:28:11;14.50;;;8.17;;
75441;SDS011;64019;48.312;14.226;2023-08-31T05:30:45;10.97;;;7.47;;
75441;SDS011;64019;48.312;14.226;2023-08-31T05:33:18;12.40;;;8.47;;
75441;SDS011;64019;48.312;14.226;2023-08-31T05:35:44;12.63;;;7.10;;
75441;SDS011;64019;48.312;14.226;2023-08-31T05:38:10;10.73;;;7.83;;
75441;SDS011;64019;48.312;14.226;2023-08-31T05:40:36;15.30;;;8.07;;
75441;SDS011;64019;48.312;14.226;2023-08-31T05:43:02;8.97;;;6.90;;
75441;SDS011;64019;48.312;14.226;2023-08-31T05:45:31;10.53;;;7.20;;
75441;SDS011;64019;48.312;14.226;2023-08-31T05:47:57;11.67;;;7.00;;
75441;SDS011;64019;48.312;14.226;2023-08-31T05:50:23;11.77;;;7.63;;
75441;SDS011;64019;48.312;14.226;2023-08-31T05:52:49;11.67;;;7.20;;
75441;SDS011;64019;48.312;14.226;2023-08-31T05:55:14;9.03;;;6.73;;
75441;SDS011;64019;48.312;14.226;2023-08-31T05:57:40;10.17;;;6.90;;
75441;SDS011;64019;48.312;14.226;2023-08-31T06:00:06;9.00;;;6.67;;
75441;SDS011;64019;48.312;14.226;2023-08-31T06:02:33;12.67;;;7.43;;
75441;SDS011;64019;48.312;14.226;2023-08-31T06:04:59;7.97;;;6.47;;
75441;SDS011;64019;48.312;14.226;2023-08-31T06:07:24;9.20;;;5.90;;
75441;SDS011;64019;48.312;14.226;2023-08-31T06:09:50;7.57;;;6.30;;
75441;SDS011;64019;48.312;14.226;2023-08-31T06:12:16;13.17;;;6.03;;
75441;SDS011;64019;48.312;14.226;2023-08-31T06:14:41;8.53;;;6.40;;
75441;SDS011;64019;48.312;14.226;2023-08-31T06:17:07;8.57;;;6.27;;
75441;SDS011;64019;48.312;14.226;2023-08-31T06:19:33;9.30;;;6.50;;
75441;SDS011;64019;48.312;14.226;2023-08-31T06:21:59;7.03;;;5.80;;
75441;SDS011;64019;48.312;14.226;2023-08-31T06:24:25;11.17;;;5.90;;
75441;SDS011;64019;48.312;14.226;2023-08-31T06:26:50;9.40;;;5.63;;
75441;SDS011;64019;48.312;14.226;2023-08-31T06:29:17;9.83;;;5.50;;
75441;SDS011;64019;48.312;14.226;2023-08-31T06:31:42;9.93;;;4.77;;
75441;SDS011;64019;48.312;14.226;2023-08-31T06:34:08;6.73;;;5.27;;
75441;SDS011;64019;48.312;14.226;2023-08-31T06:36:34;8.23;;;6.00;;
75441;SDS011;64019;48.312;14.226;2023-08-31T06:38:59;8.87;;;5.53;;
75441;SDS011;64019;48.312;14.226;2023-08-31T06:41:25;6.80;;;5.10;;
75441;SDS011;64019;48.312;14.226;2023-08-31T06:43:51;5.17;;;3.87;;
75441;SDS011;64019;48.312;14.226;2023-08-31T06:46:16;5.47;;;4.90;;
75441;SDS011;64019;48.312;14.226;2023-08-31T06:48:42;6.90;;;5.27;;
75441;SDS011;64019;48.312;14.226;2023-08-31T06:51:08;6.70;;;4.80;;
75441;SDS011;64019;48.312;14.226;2023-08-31T06:53:33;7.63;;;5.07;;
75441;SDS011;64019;48.312;14.226;2023-08-31T06:55:59;6.97;;;5.33;;
75441;SDS011;64019;48.312;14.226;2023-08-31T06:58:25;7.70;;;5.03;;
75441;SDS011;64019;48.312;14.226;2023-08-31T07:00:50;7.30;;;5.37;;
75441;SDS011;64019;48.312;14.226;2023-08-31T07:03:16;8.10;;;5.93;;
75441;SDS011;64019;48.312;14.226;2023-08-31T07:05:42;10.37;;;5.70;;
75441;SDS011;64019;48.312;14.226;2023-08-31T07:08:08;8.77;;;6.23;;
75441;SDS011;64019;48.312;14.226;2023-08-31T07:10:34;8.97;;;5.43;;
75441;SDS011;64019;48.312;14.226;2023-08-31T07:13:01;9.47;;;5.93;;
75441;SDS011;64019;48.312;14.226;2023-08-31T07:15:28;10.70;;;6.03;;
75441;SDS011;64019;48.312;14.226;2023-08-31T07:17:54;11.17;;;5.87;;
75441;SDS011;64019;48.312;14.226;2023-08-31T07:20:20;9.23;;;5.47;;
75441;SDS011;64019;48.312;14.226;2023-08-31T07:22:45;15.63;;;5.60;;
75441;SDS011;64019;48.312;14.226;2023-08-31T07:25:11;7.80;;;4.73;;
75441;SDS011;64019;48.312;14.226;2023-08-31T07:27:37;6.23;;;4.00;;
75441;SDS011;64019;48.312;14.226;2023-08-31T07:30:03;5.33;;;3.60;;
75441;SDS011;64019;48.312;14.226;2023-08-31T07:32:30;4.13;;;3.40;;
75441;SDS011;64019;48.312;14.226;2023-08-31T07:34:56;4.60;;;2.97;;
75441;SDS011;64019;48.312;14.226;2023-08-31T07:37:22;3.07;;;2.43;;
75441;SDS011;64019;48.312;14.226;2023-08-31T07:39:47;4.00;;;2.77;;
75441;SDS011;64019;48.312;14.226;2023-08-31T07:42:13;3.40;;;2.30;;
75441;SDS011;64019;48.312;14.226;2023-08-31T07:44:39;3.87;;;2.10;;
75441;SDS011;64019;48.312;14.226;2023-08-31T07:47:06;3.20;;;1.97;;
75441;SDS011;64019;48.312;14.226;2023-08-31T07:49:32;3.70;;;2.33;;
75441;SDS011;64019;48.312;14.226;2023-08-31T07:51:58;2.97;;;2.20;;
75441;SDS011;64019;48.312;14.226;2023-08-31T07:54:24;4.07;;;2.47;;
75441;SDS011;64019;48.312;14.226;2023-08-31T07:56:51;2.50;;;2.17;;
75441;SDS011;64019;48.312;14.226;2023-08-31T07:59:17;3.87;;;2.90;;
75441;SDS011;64019;48.312;14.226;2023-08-31T08:01:43;3.97;;;2.70;;
75441;SDS011;64019;48.312;14.226;2023-08-31T08:04:10;2.63;;;2.00;;
75441;SDS011;64019;48.312;14.226;2023-08-31T08:06:36;3.40;;;2.03;;
75441;SDS011;64019;48.312;14.226;2023-08-31T08:09:02;3.37;;;1.70;;
75441;SDS011;64019;48.312;14.226;2023-08-31T08:11:29;2.73;;;1.90;;
75441;SDS011;64019;48.312;14.226;2023-08-31T08:13:55;2.20;;;1.80;;
75441;SDS011;64019;48.312;14.226;2023-08-31T08:16:21;3.93;;;1.87;;
75441;SDS011;64019;48.312;14.226;2023-08-31T08:18:47;2.53;;;1.70;;
75441;SDS011;64019;48.312;14.226;2023-08-31T08:21:12;1.97;;;1.67;;
75441;SDS011;64019;48.312;14.226;2023-08-31T08:23:38;3.20;;;2.20;;
75441;SDS011;64019;48.312;14.226;2023-08-31T08:26:04;4.53;;;2.00;;
75441;SDS011;64019;48.312;14.226;2023-08-31T08:28:29;2.20;;;1.77;;
75441;SDS011;64019;48.312;14.226;2023-08-31T08:30:55;3.20;;;2.00;;
75441;SDS011;64019;48.312;14.226;2023-08-31T08:33:20;1.90;;;1.50;;
75441;SDS011;64019;48.312;14.226;2023-08-31T08:35:46;2.93;;;2.10;;
75441;SDS011;64019;48.312;14.226;2023-08-31T08:38:12;5.53;;;2.40;;
75441;SDS011;64019;48.312;14.226;2023-08-31T08:40:38;3.63;;;1.70;;
75441;SDS011;64019;48.312;14.226;2023-08-31T08:43:06;2.27;;;1.90;;
75441;SDS011;64019;48.312;14.226;2023-08-31T08:45:35;3.30;;;1.70;;
75441;SDS011;64019;48.312;14.226;2023-08-31T08:48:04;2.80;;;1.50;;
75441;SDS011;64019;48.312;14.226;2023-08-31T08:50:31;2.63;;;1.60;;
75441;SDS011;64019;48.312;14.226;2023-08-31T08:52:59;1.50;;;1.40;;
75441;SDS011;64019;48.312;14.226;2023-08-31T08:55:25;2.70;;;1.53;;
75441;SDS011;64019;48.312;14.226;2023-08-31T08:57:50;2.27;;;1.60;;
75441;SDS011;64019;48.312;14.226;2023-08-31T09:00:16;1.73;;;1.50;;
75441;SDS011;64019;48.312;14.226;2023-08-31T09:02:42;2.97;;;1.70;;
75441;SDS011;64019;48.312;14.226;2023-08-31T09:05:08;2.20;;;1.50;;
75441;SDS011;64019;48.312;14.226;2023-08-31T09:07:34;1.77;;;1.67;;
75441;SDS011;64019;48.312;14.226;2023-08-31T09:10:01;1.87;;;1.70;;
75441;SDS011;64019;48.312;14.226;2023-08-31T09:12:29;2.43;;;2.00;;
75441;SDS011;64019;48.312;14.226;2023-08-31T09:17:24;4.73;;;1.90;;
75441;SDS011;64019;48.312;14.226;2023-08-31T09:19:59;3.40;;;1.50;;
75441;SDS011;64019;48.312;14.226;2023-08-31T09:22:26;1.80;;;1.67;;
75441;SDS011;64019;48.312;14.226;2023-08-31T09:24:51;2.00;;;1.57;;
75441;SDS011;64019;48.312;14.226;2023-08-31T09:27:17;4.70;;;1.67;;
75441;SDS011;64019;48.312;14.226;2023-08-31T09:29:45;5.20;;;1.93;;
75441;SDS011;64019;48.312;14.226;2023-08-31T09:32:20;3.00;;;2.00;;
75441;SDS011;64019;48.312;14.226;2023-08-31T09:34:46;2.67;;;1.70;;
75441;SDS011;64019;48.312;14.226;2023-08-31T09:37:14;3.33;;;1.60;;
75441;SDS011;64019;48.312;14.226;2023-08-31T09:39:41;4.77;;;1.83;;
75441;SDS011;64019;48.312;14.226;2023-08-31T09:42:07;5.60;;;2.10;;
75441;SDS011;64019;48.312;14.226;2023-08-31T09:44:33;4.00;;;1.83;;
75441;SDS011;64019;48.312;14.226;2023-08-31T09:46:59;3.80;;;2.07;;
75441;SDS011;64019;48.312;14.226;2023-08-31T09:49:26;3.73;;;2.03;;
75441;SDS011;64019;48.312;14.226;2023-08-31T09:51:53;2.73;;;2.00;;
75441;SDS011;64019;48.312;14.226;2023-08-31T09:54:19;5.57;;;1.90;;
75441;SDS011;64019;48.312;14.226;2023-08-31T09:56:47;4.63;;;2.20;;
75441;SDS011;64019;48.312;14.226;2023-08-31T09:59:13;6.37;;;2.50;;
75441;SDS011;64019;48.312;14.226;2023-08-31T10:01:40;4.67;;;2.00;;
75441;SDS011;64019;48.312;14.226;2023-08-31T10:04:07;4.43;;;2.10;;
75441;SDS011;64019;48.312;14.226;2023-08-31T10:06:40;2.67;;;1.90;;
75441;SDS011;64019;48.312;14.226;2023-08-31T10:09:07;2.83;;;1.80;;
75441;SDS011;64019;48.312;14.226;2023-08-31T10:11:40;4.20;;;2.37;;
75441;SDS011;64019;48.312;14.226;2023-08-31T10:14:08;6.93;;;2.03;;
75441;SDS011;64019;48.312;14.226;2023-08-31T10:16:35;4.97;;;2.00;;
75441;SDS011;64019;48.312;14.226;2023-08-31T10:19:04;7.90;;;1.80;;
75441;SDS011;64019;48.312;14.226;2023-08-31T10:21:30;3.60;;;2.70;;
75441;SDS011;64019;48.312;14.226;2023-08-31T10:23:55;2.83;;;1.73;;
75441;SDS011;64019;48.312;14.226;2023-08-31T10:26:28;3.20;;;2.00;;
75441;SDS011;64019;48.312;14.226;2023-08-31T10:28:54;5.77;;;2.10;;
75441;SDS011;64019;48.312;14.226;2023-08-31T10:31:22;4.73;;;1.83;;
75441;SDS011;64019;48.312;14.226;2023-08-31T10:33:58;2.47;;;1.83;;
75441;SDS011;64019;48.312;14.226;2023-08-31T10:36:41;2.33;;;1.73;;
75441;SDS011;64019;48.312;14.226;2023-08-31T10:39:13;3.23;;;2.03;;
75441;SDS011;64019;48.312;14.226;2023-08-31T10:41:53;4.30;;;2.00;;
75441;SDS011;64019;48.312;14.226;2023-08-31T10:44:22;4.57;;;1.87;;
75441;SDS011;64019;48.312;14.226;2023-08-31T10:46:53;2.17;;;1.80;;
75441;SDS011;64019;48.312;14.226;2023-08-31T10:49:20;3.50;;;1.80;;
75441;SDS011;64019;48.312;14.226;2023-08-31T10:51:54;3.33;;;2.13;;
75441;SDS011;64019;48.312;14.226;2023-08-31T10:54:21;4.87;;;1.90;;
75441;SDS011;64019;48.312;14.226;2023-08-31T10:56:51;4.83;;;2.10;;
75441;SDS011;64019;48.312;14.226;2023-08-31T10:59:49;5.03;;;1.83;;
75441;SDS011;64019;48.312;14.226;2023-08-31T11:05:07;4.57;;;2.17;;
75441;SDS011;64019;48.312;14.226;2023-08-31T11:07:40;3.90;;;2.13;;
75441;SDS011;64019;48.312;14.226;2023-08-31T11:12:46;3.20;;;1.47;;
75441;SDS011;64019;48.312;14.226;2023-08-31T11:15:16;3.33;;;1.73;;
75441;SDS011;64019;48.312;14.226;2023-08-31T11:17:43;3.80;;;1.97;;
75441;SDS011;64019;48.312;14.226;2023-08-31T11:20:16;3.30;;;1.90;;
75441;SDS011;64019;48.312;14.226;2023-08-31T11:22:47;5.07;;;1.63;;
75441;SDS011;64019;48.312;14.226;2023-08-31T11:25:18;3.80;;;2.10;;
75441;SDS011;64019;48.312;14.226;2023-08-31T11:28:00;5.17;;;2.27;;
75441;SDS011;64019;48.312;14.226;2023-08-31T11:30:29;4.23;;;1.90;;
75441;SDS011;64019;48.312;14.226;2023-08-31T11:33:05;5.33;;;1.90;;
75441;SDS011;64019;48.312;14.226;2023-08-31T11:35:36;4.43;;;1.87;;
75441;SDS011;64019;48.312;14.226;2023-08-31T11:38:04;2.87;;;1.50;;
75441;SDS011;64019;48.312;14.226;2023-08-31T11:40:31;4.80;;;1.90;;
75441;SDS011;64019;48.312;14.226;2023-08-31T11:42:59;4.83;;;1.83;;
75441;SDS011;64019;48.312;14.226;2023-08-31T11:45:25;4.60;;;1.87;;
75441;SDS011;64019;48.312;14.226;2023-08-31T11:47:52;4.27;;;1.97;;
75441;SDS011;64019;48.312;14.226;2023-08-31T11:50:18;3.83;;;2.13;;
75441;SDS011;64019;48.312;14.226;2023-08-31T11:52:45;4.10;;;1.87;;
75441;SDS011;64019;48.312;14.226;2023-08-31T11:55:12;3.40;;;1.53;;
75441;SDS011;64019;48.312;14.226;2023-08-31T11:57:40;2.57;;;1.47;;
75441;SDS011;64019;48.312;14.226;2023-08-31T12:00:06;3.77;;;1.70;;
75441;SDS011;64019;48.312;14.226;2023-08-31T12:02:35;1.80;;;1.30;;
75441;SDS011;64019;48.312;14.226;2023-08-31T12:05:01;2.97;;;1.70;;
75441;SDS011;64019;48.312;14.226;2023-08-31T12:07:27;2.70;;;1.60;;
75441;SDS011;64019;48.312;14.226;2023-08-31T12:09:52;4.57;;;1.80;;
75441;SDS011;64019;48.312;14.226;2023-08-31T12:12:22;3.00;;;1.90;;
75441;SDS011;64019;48.312;14.226;2023-08-31T12:14:52;2.73;;;1.70;;
75441;SDS011;64019;48.312;14.226;2023-08-31T12:17:18;3.70;;;1.70;;
75441;SDS011;64019;48.312;14.226;2023-08-31T12:19:44;2.97;;;1.57;;
75441;SDS011;64019;48.312;14.226;2023-08-31T12:22:09;2.90;;;1.90;;
75441;SDS011;64019;48.312;14.226;2023-08-31T12:24:39;3.00;;;1.57;;
75441;SDS011;64019;48.312;14.226;2023-08-31T12:27:09;3.77;;;2.00;;
75441;SDS011;64019;48.312;14.226;2023-08-31T12:29:36;3.00;;;1.60;;
75441;SDS011;64019;48.312;14.226;2023-08-31T12:32:01;2.70;;;1.73;;
75441;SDS011;64019;48.312;14.226;2023-08-31T12:34:28;6.17;;;1.77;;
75441;SDS011;64019;48.312;14.226;2023-08-31T12:36:56;7.53;;;1.70;;
75441;SDS011;64019;48.312;14.226;2023-08-31T12:39:24;6.07;;;1.90;;
75441;SDS011;64019;48.312;14.226;2023-08-31T12:41:50;7.87;;;1.87;;
75441;SDS011;64019;48.312;14.226;2023-08-31T12:44:16;5.90;;;1.97;;
75441;SDS011;64019;48.312;14.226;2023-08-31T12:46:41;3.10;;;1.50;;
75441;SDS011;64019;48.312;14.226;2023-08-31T12:49:07;6.03;;;1.57;;
75441;SDS011;64019;48.312;14.226;2023-08-31T12:51:33;7.43;;;1.60;;
75441;SDS011;64019;48.312;14.226;2023-08-31T12:53:58;3.53;;;1.30;;
75441;SDS011;64019;48.312;14.226;2023-08-31T12:56:24;7.27;;;1.60;;
75441;SDS011;64019;48.312;14.226;2023-08-31T12:58:53;3.33;;;1.37;;
75441;SDS011;64019;48.312;14.226;2023-08-31T13:01:19;3.50;;;1.53;;
75441;SDS011;64019;48.312;14.226;2023-08-31T13:03:46;4.77;;;2.00;;
75441;SDS011;64019;48.312;14.226;2023-08-31T13:06:12;2.57;;;1.60;;
75441;SDS011;64019;48.312;14.226;2023-08-31T13:08:39;3.77;;;1.60;;
75441;SDS011;64019;48.312;14.226;2023-08-31T13:11:05;2.83;;;1.30;;
75441;SDS011;64019;48.312;14.226;2023-08-31T13:13:31;2.37;;;1.30;;
75441;SDS011;64019;48.312;14.226;2023-08-31T13:15:57;2.97;;;1.40;;
75441;SDS011;64019;48.312;14.226;2023-08-31T13:18:23;6.50;;;1.33;;
75441;SDS011;64019;48.312;14.226;2023-08-31T13:20:49;3.73;;;1.43;;
75441;SDS011;64019;48.312;14.226;2023-08-31T13:23:16;1.77;;;1.13;;
75441;SDS011;64019;48.312;14.226;2023-08-31T13:25:42;2.97;;;1.43;;
75441;SDS011;64019;48.312;14.226;2023-08-31T13:28:08;6.43;;;1.77;;
75441;SDS011;64019;48.312;14.226;2023-08-31T13:30:33;2.90;;;1.40;;
75441;SDS011;64019;48.312;14.226;2023-08-31T13:32:59;4.53;;;2.10;;
75441;SDS011;64019;48.312;14.226;2023-08-31T13:35:24;3.30;;;1.70;;
75441;SDS011;64019;48.312;14.226;2023-08-31T13:37:50;4.30;;;1.77;;
75441;SDS011;64019;48.312;14.226;2023-08-31T13:40:16;2.60;;;1.20;;
75441;SDS011;64019;48.312;14.226;2023-08-31T13:42:48;3.17;;;1.83;;
75441;SDS011;64019;48.312;14.226;2023-08-31T13:45:19;3.80;;;1.53;;
75441;SDS011;64019;48.312;14.226;2023-08-31T13:47:45;6.13;;;1.60;;
75441;SDS011;64019;48.312;14.226;2023-08-31T13:50:14;3.63;;;1.23;;
75441;SDS011;64019;48.312;14.226;2023-08-31T13:52:43;3.47;;;1.60;;
75441;SDS011;64019;48.312;14.226;2023-08-31T13:55:08;2.67;;;1.33;;
75441;SDS011;64019;48.312;14.226;2023-08-31T13:57:34;4.33;;;1.33;;
75441;SDS011;64019;48.312;14.226;2023-08-31T14:00:00;1.63;;;1.30;;
75441;SDS011;64019;48.312;14.226;2023-08-31T14:02:26;3.57;;;2.07;;
75441;SDS011;64019;48.312;14.226;2023-08-31T14:04:52;2.37;;;1.50;;
75441;SDS011;64019;48.312;14.226;2023-08-31T14:07:19;2.70;;;1.80;;
75441;SDS011;64019;48.312;14.226;2023-08-31T14:09:44;6.47;;;2.77;;
75441;SDS011;64019;48.312;14.226;2023-08-31T14:12:10;3.33;;;1.30;;
75441;SDS011;64019;48.312;14.226;2023-08-31T14:14:36;3.27;;;2.07;;
75441;SDS011;64019;48.312;14.226;2023-08-31T14:17:01;3.30;;;1.57;;
75441;SDS011;64019;48.312;14.226;2023-08-31T14:19:28;2.60;;;1.47;;
75441;SDS011;64019;48.312;14.226;2023-08-31T14:21:54;3.20;;;1.60;;
75441;SDS011;64019;48.312;14.226;2023-08-31T14:24:19;3.20;;;1.30;;
75441;SDS011;64019;48.312;14.226;2023-08-31T14:26:45;2.53;;;1.40;;
75441;SDS011;64019;48.312;14.226;2023-08-31T14:29:11;1.67;;;1.47;;
75441;SDS011;64019;48.312;14.226;2023-08-31T14:31:37;2.83;;;1.50;;
75441;SDS011;64019;48.312;14.226;2023-08-31T14:34:03;2.80;;;1.50;;
75441;SDS011;64019;48.312;14.226;2023-08-31T14:36:28;4.63;;;1.90;;
75441;SDS011;64019;48.312;14.226;2023-08-31T14:38:54;3.83;;;1.50;;
75441;SDS011;64019;48.312;14.226;2023-08-31T14:41:20;4.97;;;1.43;;
75441;SDS011;64019;48.312;14.226;2023-08-31T14:43:46;2.83;;;1.50;;
75441;SDS011;64019;48.312;14.226;2023-08-31T14:46:11;3.27;;;1.80;;